Latest Weather Observations for Coonabarabran Airport

IDN60801

Issued at 4:32 pm EDT Friday 20 January 2017 (issued every 30 minutes, with the page automatically refreshed every 10 minutes)

About weather observations | Map of weather stations | Latest weather observations for NSW | Other Formats
Station Details ID: 064017 Name: COONABARABRAN AIRPORT AWS Lat: -31.33 Lon: 149.27 Height: 645.0 m
Data from the previous 72 hours. | See also: Recent months at Coonabarabran Airport
Date/Time
EDT
Temp
°C
App
Temp
°C
Dew
Point
°C
Rel
Hum
%
Delta-T
°C
Wind Press
QNH
hPa
Press
MSL
hPa
Rain since
9am
mm
Dir  Spd
km/h
Gust
km/h
Spd
kts
Gust
kts
20/04:30pm 29.4 27.3 20.5 58 6.0 WNW 32 43 17 23 1002.4 998.3 24.0
20/04:00pm 29.3 28.1 21.5 63 5.4 WNW 30 41 16 22 1002.5 998.4 24.0
20/03:34pm 29.3 27.7 20.7 59 5.8 WNW 30 48 16 26 1002.8 998.7 24.0
20/03:30pm 29.0 28.4 21.2 62 5.3 WNW 26 41 14 22 1002.7 998.6 24.0
20/03:00pm 28.4 27.3 21.7 67 4.6 W 30 41 16 22 1003.1 999.0 24.0
20/02:30pm 27.7 28.0 22.9 75 3.3 WNW 26 35 14 19 1003.6 999.5 24.0
20/02:09pm 26.5 24.6 21.3 73 3.5 W 33 52 18 28 1003.9 999.8 24.0
20/02:00pm 26.3 24.3 21.9 77 3.0 W 35 52 19 28 1004.0 999.9 24.0
20/01:45pm 26.1 22.5 21.7 77 3.0 W 43 63 23 34 1004.1 1000.1 24.0
20/01:36pm 25.6 25.5 21.5 78 2.8 WNW 24 50 13 27 1004.5 1000.4 24.0
20/01:30pm 24.9 25.9 21.8 83 2.1 NW 19 26 10 14 1004.7 1000.6 24.0
20/01:00pm 22.4 22.3 21.4 94 0.7 WNW 24 33 13 18 1004.8 1000.7 24.0
20/12:47pm 21.5 18.9 20.7 95 0.5 WNW 35 65 19 35 1005.5 1001.5 23.6
20/12:43pm 20.8 17.9 20.0 95 0.5 WNW 35 65 19 35 1005.6 1001.6 23.2
20/12:40pm 21.6 20.4 20.9 96 0.5 W 28 65 15 35 1006.2 1002.1 20.8
20/12:39pm 22.0 21.4 21.2 95 0.5 W 26 50 14 27 1006.4 1002.3 18.6
20/12:30pm 23.0 24.7 22.3 96 0.5 W 17 24 9 13 1005.2 1001.1 9.8
20/12:00pm 23.0 24.2 22.2 95 0.5 NNW 19 24 10 13 1005.0 1000.9 6.0
20/11:30am 22.6 23.1 21.9 96 0.5 NNW 22 32 12 17 1005.6 1001.6 5.4
20/11:00am 22.3 21.1 21.6 96 0.5 N 30 43 16 23 1005.2 1001.1 5.0
20/10:30am 22.3 21.0 21.3 94 0.7 N 30 43 16 23 1005.5 1001.5 2.8
20/10:00am 22.8 21.5 21.3 91 1.0 NNW 30 46 16 25 1006.0 1001.9 0.2
20/09:37am 22.6 21.4 20.9 90 1.1 NNW 28 48 15 26 1006.3 1002.2 0.0
20/09:30am 22.7 21.5 20.8 89 1.3 NNW 28 39 15 21 1006.4 1002.3 0.0
20/09:00am 22.4 20.3 20.5 89 1.3 N 32 43 17 23 1006.6 1002.5 0.6
20/08:30am 22.1 20.3 20.4 90 1.1 NNW 30 44 16 24 1007.3 1003.3 0.6
20/08:00am 21.8 20.8 20.4 92 0.9 N 26 35 14 19 1007.3 1003.3 0.6
20/07:30am 21.7 21.0 20.3 92 0.9 NNW 24 39 13 21 1007.6 1003.5 0.6
20/07:00am 21.8 20.5 19.9 89 1.3 NNW 26 39 14 21 1007.1 1003.1 0.2
20/06:30am 22.3 20.2 19.7 85 1.7 N 30 44 16 24 1006.5 1002.4 0.0
20/06:00am 22.6 20.0 19.8 84 1.8 N 33 44 18 24 1006.3 1002.2 0.0
20/05:30am 22.4 20.7 19.9 86 1.6 N 28 37 15 20 1006.3 1002.2 0.0
20/05:00am 22.4 20.0 19.9 86 1.7 N 32 44 17 24 1006.0 1001.9 0.0
20/04:30am 22.3 20.8 19.5 84 1.8 N 26 35 14 19 1006.1 1002.0 0.0
20/04:00am 22.3 21.1 18.5 79 2.5 N 22 32 12 17 1006.5 1002.4 0.0
20/03:30am 21.9 20.6 17.3 75 2.9 N 20 30 11 16 1007.0 1003.0 0.0
20/03:00am 22.3 20.5 17.0 72 3.3 N 22 32 12 17 1007.7 1003.6 0.0
20/02:30am 22.5 22.0 16.8 70 3.6 NNE 15 20 8 11 1008.4 1004.4 0.0
20/02:00am 22.8 21.8 16.6 68 3.9 NNE 17 20 9 11 1008.4 1004.4 0.0
20/01:30am 23.0 21.4 16.5 67 4.1 NE 20 26 11 14 1008.5 1004.5 0.0
20/01:00am 23.2 23.2 16.3 65 4.3 ENE 11 19 6 10 1009.0 1005.0 0.0
20/12:30am 23.6 22.4 16.1 62 4.7 ENE 17 22 9 12 1008.8 1004.8 0.0
20/12:00am 23.6 21.8 15.9 62 4.8 ENE 20 28 11 15 1008.9 1004.9 0.0
 
Date/Time
EDT
Temp
°C
App
Temp
°C
Dew
Point
°C
Rel
Hum
%
Delta-T
°C
Wind Press
QNH
hPa
Press
MSL
hPa
Rain since
9am
mm
Dir  Spd
km/h
Gust
km/h
Spd
kts
Gust
kts
19/11:30pm 23.3 24.2 16.6 66 4.2 ENE 7 11 4 6 1009.3 1005.2 0.0
19/11:00pm 23.6 24.0 16.4 64 4.5 E 9 13 5 7 1009.4 1005.3 0.0
19/10:30pm 24.0 24.9 16.5 63 4.7 S 7 13 4 7 1009.5 1005.4 0.0
19/10:00pm 24.6 24.7 16.6 61 5.1 S 11 13 6 7 1009.3 1005.2 0.0
19/09:30pm 25.3 25.2 15.9 56 5.9 SE 11 15 6 8 1009.1 1005.1 0.0
19/09:00pm 26.7 25.4 15.7 51 6.9 SE 17 20 9 11 1008.8 1004.8 0.0
19/08:30pm 28.3 26.9 15.6 46 8.0 SE 17 26 9 14 1008.6 1004.6 0.0
19/08:00pm 30.0 30.6 15.7 42 9.1 SE 7 11 4 6 1008.2 1004.1 0.0
19/07:30pm 32.0 33.0 16.3 39 10.1 SSE 6 9 3 5 1008.1 1004.0 0.0
19/07:00pm 32.4 32.1 15.4 36 10.8 E 11 17 6 9 1008.1 1004.0 0.0
19/06:30pm 33.1 33.0 16.0 35 11.0 SSW 11 17 6 9 1008.1 1004.0 0.0
19/06:00pm 33.5 34.5 16.8 36 10.9 WSW 7 11 4 6 1008.2 1004.1 0.0
19/05:30pm 32.5 33.8 17.5 40 9.8 SE 7 13 4 7 1008.5 1004.5 0.0
19/05:00pm 32.9 33.3 16.3 37 10.7 SSW 9 17 5 9 1008.8 1004.8 0.0
19/04:30pm 32.7 32.0 16.5 37 10.5 S 15 17 8 9 1009.4 1005.3 0.0
19/04:00pm 33.3 34.0 17.1 38 10.6 NNW 9 20 5 11 1009.8 1005.8 0.0
19/03:30pm 32.5 32.5 16.3 37 10.4 S 11 17 6 9 1010.3 1006.3 0.0
19/03:00pm 32.1 32.1 17.2 41 9.7 NE 13 20 7 11 1010.7 1006.7 0.0
19/02:30pm 31.7 32.9 18.3 45 8.9 NE 9 13 5 7 1011.1 1007.1 0.0
19/02:00pm 31.5 33.2 18.5 46 8.6 SSE 7 24 4 13 1011.5 1007.5 0.0
19/01:30pm 31.1 32.4 19.4 49 7.8 ESE 11 20 6 11 1011.8 1007.8 0.0
19/01:00pm 30.3 31.8 19.0 50 7.5 NE 9 17 5 9 1012.2 1008.2 0.0
19/12:30pm 29.7 30.0 18.8 52 7.2 E 15 33 8 18 1012.6 1008.6 0.0
19/12:00pm 27.9 28.2 18.0 55 6.5 E 13 24 7 13 1012.9 1008.9 0.0
19/11:30am 27.1 27.0 17.8 56 6.0 NE 15 22 8 12 1013.1 1009.1 0.0
19/11:00am 26.2 25.7 17.8 60 5.4 ENE 17 22 9 12 1013.3 1009.3 0.0
19/10:30am 25.0 25.9 18.4 66 4.3 ENE 11 17 6 9 1013.4 1009.4 0.0
19/10:00am 24.3 24.2 18.7 71 3.6 ENE 17 20 9 11 1013.5 1009.5 0.0
19/09:30am 22.9 23.2 18.0 74 3.1 ENE 13 17 7 9 1013.5 1009.5 0.0
19/09:00am 22.5 23.1 18.5 78 2.6 ESE 13 17 7 9 1013.5 1009.5 14.6
19/08:30am 21.8 23.0 18.2 80 2.3 E 9 15 5 8 1013.4 1009.4 14.6
19/08:00am 20.4 22.1 18.0 86 1.5 SSE 6 13 3 7 1013.2 1009.2 14.6
19/07:30am 19.1 20.2 18.1 94 0.6 S 9 13 5 7 1013.1 1009.1 14.6
19/07:00am 18.9 19.7 18.2 96 0.4 S 11 13 6 7 1012.8 1008.8 14.6
19/06:30am 18.9 19.3 18.1 95 0.5 S 13 15 7 8 1012.4 1008.4 14.6
19/06:00am 19.0 19.4 18.2 95 0.5 S 13 15 7 8 1012.0 1008.0 14.6
19/05:30am 19.2 19.2 18.0 93 0.8 SSE 15 19 8 10 1011.9 1007.9 14.6
19/05:00am 19.5 20.2 18.0 91 1.0 SSW 11 15 6 8 1011.7 1007.7 14.6
19/04:30am 19.8 20.7 17.6 87 1.4 S 9 11 5 6 1011.6 1007.6 14.6
19/04:00am 20.4 21.7 17.6 84 1.8 SSE 7 13 4 7 1011.4 1007.4 14.6
19/03:30am 20.2 20.7 17.4 84 1.8 SSE 11 13 6 7 1011.8 1007.8 14.6
19/03:00am 20.7 21.5 17.3 81 2.1 SSE 9 11 5 6 1012.1 1008.1 14.6
19/02:30am 20.7 21.4 17.1 80 2.3 SSW 9 13 5 7 1012.3 1008.3 14.6
19/02:00am 21.0 22.1 17.2 79 2.4 SSW 7 13 4 7 1012.6 1008.6 14.6
19/01:30am 21.3 22.3 16.9 76 2.8 S 7 13 4 7 1012.8 1008.8 14.6
19/01:00am 21.7 22.0 16.9 74 3.0 ENE 11 13 6 7 1013.2 1009.2 14.6
19/12:30am 22.0 22.3 16.9 73 3.2 ENE 11 15 6 8 1013.5 1009.5 14.6
19/12:00am 22.4 23.3 17.5 74 3.1 NE 9 13 5 7 1013.6 1009.6 14.6
 
Date/Time
EDT
Temp
°C
App
Temp
°C
Dew
Point
°C
Rel
Hum
%
Delta-T
°C
Wind Press
QNH
hPa
Press
MSL
hPa
Rain since
9am
mm
Dir  Spd
km/h
Gust
km/h
Spd
kts
Gust
kts
18/11:30pm 21.7 21.6 16.9 74 3.0 ENE 13 15 7 8 1013.8 1009.8 14.6
18/11:00pm 21.3 20.4 18.1 82 2.0 NE 20 26 11 14 1013.9 1010.0 14.6
18/10:30pm 22.8 22.9 17.5 72 3.4 N 13 17 7 9 1013.4 1009.4 14.6
18/10:00pm 22.8 22.6 17.7 73 3.3 NNW 15 19 8 10 1012.9 1008.9 14.6
18/09:30pm 22.1 21.9 18.5 80 2.3 NNW 17 22 9 12 1012.9 1008.9 14.4
18/09:00pm 21.8 21.3 19.0 84 1.8 N 20 24 11 13 1012.7 1008.7 14.4
18/08:30pm 21.8 21.0 19.2 85 1.7 N 22 28 12 15 1012.6 1008.6 14.4
18/08:00pm 22.4 20.0 19.0 81 2.2 NW 30 46 16 25 1012.9 1008.9 14.0
18/07:30pm 21.4 21.2 19.7 90 1.1 N 20 28 11 15 1012.1 1008.1 13.8
18/07:00pm 21.8 21.6 19.7 88 1.4 N 20 24 11 13 1013.0 1009.0 12.0
18/06:30pm 22.7 23.7 20.2 86 1.7 NW 15 22 8 12 1013.4 1009.4 10.2
18/06:00pm 22.1 23.6 20.6 91 1.0 SE 13 22 7 12 1012.7 1008.7 10.0
18/05:34pm 21.6 19.2 18.2 81 2.2 SW 28 50 15 27 1013.1 1009.1 0.0
18/05:30pm 23.8 21.8 17.5 68 4.0 SW 24 35 13 19 1013.2 1009.2 0.0
18/05:00pm 25.4 20.4 17.1 60 5.3 SSW 39 63 21 34 1012.2 1008.2 0.0
18/04:59pm 25.6 20.6 17.0 59 5.5 SSW 39 63 21 34 1012.1 1008.1 0.0
18/04:51pm 30.6 29.3 17.3 45 8.6 WNW 20 52 11 28 1011.6 1007.6 0.0
18/04:30pm 35.4 32.7 16.7 33 12.2 NW 26 41 14 22 1010.1 1006.1 0.0
18/04:00pm 34.6 31.8 17.3 35 11.4 NNW 28 37 15 20 1010.5 1006.5 0.0
18/03:30pm 35.0 31.4 17.2 34 11.7 NW 32 44 17 24 1011.3 1007.3 0.0
18/03:00pm 34.9 30.9 16.7 34 11.9 NW 33 46 18 25 1012.0 1008.0 0.0
18/02:30pm 35.3 31.4 17.0 33 12.0 NW 33 48 18 26 1012.7 1008.7 0.0
18/02:00pm 34.7 31.0 17.0 35 11.6 NW 32 43 17 23 1013.1 1009.1 0.0
18/01:30pm 34.2 31.5 16.5 34 11.5 NNW 26 37 14 20 1013.4 1009.4 0.0
18/01:00pm 33.8 30.7 16.6 35 11.2 NW 28 41 15 22 1013.9 1010.0 0.0
18/12:30pm 32.6 30.0 16.8 38 10.3 NW 26 35 14 19 1014.2 1010.2 0.0
18/12:00pm 32.5 29.1 16.8 39 10.2 NW 30 39 16 21 1014.5 1010.5 0.0
18/11:30am 32.1 28.2 16.4 39 10.1 NW 32 48 17 26 1014.7 1010.7 0.0
18/11:00am 30.9 26.7 15.7 39 9.7 NNW 32 46 17 25 1014.5 1010.5 0.0
18/10:30am 30.0 25.3 13.3 36 10.2 NNW 30 43 16 23 1014.5 1010.5 0.0
18/10:08am 30.1 26.3 14.6 39 9.7 NNW 28 50 15 27 1014.5 1010.5 0.0
18/10:00am 30.1 26.7 15.8 42 9.1 NNW 28 41 15 22 1014.7 1010.7 0.0
18/09:30am 28.1 22.8 15.4 46 8.0 NW 37 57 20 31 1014.9 1010.9 0.0
18/09:02am 27.3 24.0 16.0 50 7.1 NNW 28 48 15 26 1014.8 1010.8 0.0
18/09:00am 27.2 24.0 16.2 51 7.0 NNW 28 41 15 22 1014.8 1010.8 0.0
18/08:30am 25.0 21.8 16.2 58 5.5 NNW 28 39 15 21 1014.9 1010.9 0.0
18/08:00am 23.8 19.0 16.6 64 4.5 NNW 37 52 20 28 1014.3 1010.3 0.0
18/07:31am 24.9 21.2 16.9 61 5.1 NW 32 50 17 27 1014.8 1010.8 0.0
18/07:30am 24.9 21.1 16.6 60 5.2 NW 32 43 17 23 1014.9 1010.9 0.0
18/07:00am 25.6 21.7 16.5 57 5.8 NW 32 46 17 25 1014.9 1010.9 0.0
18/06:38am 26.2 22.8 15.9 53 6.5 NW 28 48 15 26 1014.5 1010.5 0.0
18/06:30am 26.8 23.6 15.2 49 7.2 WNW 26 41 14 22 1014.5 1010.5 0.0
18/06:00am 27.6 24.4 14.3 44 8.2 WNW 24 33 13 18 1013.9 1010.0 0.0
18/05:41am 27.9 23.8 13.8 42 8.6 NW 28 46 15 25 1013.1 1009.1 0.0
18/05:30am 28.1 23.7 14.0 42 8.7 NW 30 44 16 24 1012.9 1008.9 0.0
18/05:07am 28.5 23.9 13.6 40 9.1 NW 30 48 16 26 1012.7 1008.7 0.0
18/05:00am 28.5 24.3 13.6 40 9.1 NNW 28 39 15 21 1012.7 1008.7 0.0
18/04:30am 28.2 24.2 14.1 42 8.7 NNW 28 41 15 22 1012.3 1008.3 0.0
18/04:23am 27.9 23.9 14.2 43 8.4 NNW 28 46 15 25 1012.3 1008.3 0.0
18/04:00am 28.0 23.3 14.3 43 8.5 NNW 32 44 17 24 1012.2 1008.2 0.0
18/03:30am 27.9 24.0 14.5 44 8.3 NNW 28 37 15 20 1012.4 1008.4 0.0
18/03:00am 27.9 23.8 14.9 45 8.1 NNW 30 41 16 22 1012.7 1008.7 0.0
18/02:30am 27.9 23.8 14.9 45 8.1 NNW 30 43 16 23 1013.0 1009.0 0.0
18/02:00am 28.0 24.2 14.6 44 8.3 NNW 28 35 15 19 1013.1 1009.1 0.0
18/01:30am 28.1 24.5 14.3 42 8.5 NNW 26 35 14 19 1013.5 1009.5 0.0
18/01:00am 28.4 25.2 14.3 42 8.7 NNW 24 33 13 18 1013.7 1009.7 0.0
18/12:30am 28.5 25.6 14.0 41 8.9 NNW 22 35 12 19 1013.9 1010.0 0.0
18/12:00am 28.7 25.8 14.1 40 9.0 NNW 22 28 12 15 1014.3 1010.3 0.0
 
Date/Time
EDT
Temp
°C
App
Temp
°C
Dew
Point
°C
Rel
Hum
%
Delta-T
°C
Wind Press
QNH
hPa
Press
MSL
hPa
Rain since
9am
mm
Dir  Spd
km/h
Gust
km/h
Spd
kts
Gust
kts
17/11:30pm 28.5 26.2 14.0 41 8.9 NNW 19 24 10 13 1014.6 1010.6 0.0
17/11:00pm 28.6 26.7 14.1 41 8.9 NNW 17 22 9 12 1014.7 1010.7 0.0
17/10:30pm 29.1 27.2 14.1 40 9.3 NNW 17 20 9 11 1014.8 1010.8 0.0
17/10:00pm 29.2 27.6 13.8 39 9.5 NNW 15 19 8 10 1014.7 1010.7 0.0
17/09:30pm 29.9 28.6 13.6 36 10.0 NNW 13 17 7 9 1014.4 1010.4 0.0
17/09:00pm 30.5 29.2 13.7 35 10.4 N 13 15 7 8 1014.0 1010.1 0.0
17/08:30pm 31.1 30.1 13.4 34 10.9 N 11 13 6 7 1014.0 1010.1 0.0
17/08:00pm 32.5 30.7 13.2 31 11.9 NNW 15 24 8 13 1013.9 1010.0 0.0
17/07:30pm 33.8 31.6 13.3 29 12.7 NNW 17 22 9 12 1013.9 1010.0 0.0
17/07:00pm 34.5 32.7 13.3 27 13.2 NNW 15 20 8 11 1013.9 1010.0 0.0
17/06:30pm 34.9 32.6 13.1 27 13.5 NW 17 22 9 12 1013.9 1010.0 0.0
17/06:00pm 35.1 31.8 12.7 26 13.8 WNW 22 30 12 16 1013.8 1009.8 0.0
17/05:30pm 34.9 31.9 12.5 25 13.8 NW 20 33 11 18 1013.9 1010.0 0.0
17/05:00pm 35.2 32.5 13.4 27 13.6 NNW 20 30 11 16 1014.2 1010.2 0.0

Other Formats:

Comma delimited format used in spreadsheet applications
http://www.bom.gov.au/fwo/IDN60801/IDN60801.95728.axf

JavaScript Object Notation format (JSON) in row-major order
http://www.bom.gov.au/fwo/IDN60801/IDN60801.95728.json